Rencontre East, Canada
Current Conditions -  °F | °C
As of 6:00 AM on Thursday 27 Nov 2014 (Local Time) from LFVP Reporting Station
Light Rain Light Rain  
Wind Chill: 27°   Ceiling: 2100
Heat Index: 37°   Visibility: 2.5mi
Dew Point: 37°   Wind: 18mph
Humidity: 100%   Direction: 90°E
Pressure: 29.88"   Gusts: NA
Location:  47.65°N, 55.23°W
Report Text: LFVP 270900Z 09016KT 4000 -RA BR SCT004 BKN021 03/03 Q1012
Loading
Personal Weather Stations






























Interactive Weather Map New forecast layout! Learn more

10-Day Weather Forecast

Advertisements
Track Severe Weather on mobile